カンクン の空港の天気 - METARとTAF

カンクン国際空港 ( MMUN / CUN ) - メキシコ キンタナ・ロー州カンクン
飛行場実況気象(Metar)
観測時間01/22 03:45 CST (01/22 09:45 UTC)
風向・風速南南東 5m/s
視程10km以上
天気現象
少しの雲 雲底高度 550m
気温26℃
湿度89%
気圧1007hPa
METARMMUN 220945Z 15010KT 7SM FEW018 26/24 A2974 RMK 8/500
過去の天気等 Google飛行場航空写真 Wunderground天気予報

過去48時間のMETAR

飛行場予報(TAF)
発表時間: 1/21 23:16 CST (1/22 05:16 UTC)
予報対象時間: 22日0時 CST ~ 23日6時 CST
風向・風速南南東 4m/s
視程10km以上
なし
22日5時 CST から
風向・風速南南東 5m/s
視程10km以上
全天の4割程度の雲 雲底高度 460m
全天の4割程度の雲 雲底高度 2,440m
22日12時 CST から
風向・風速南南西 8m/s
視程10km以上
全天の8割程度の雲 雲底高度 460m
全天を覆う雲 雲底高度 2,440m
22日13時 CST ~ 22日15時 CST に徐々に
視程8,050m
天気現象弱い雨
22日17時 CST ~ 22日21時 CST に一時的に
視程4,830m
天気現象雷雨
全天の8割程度の積乱雲 雲底高度 460m
TAF MMUN 220516Z 2206/2312 15008KT P6SM SKC TX29/2219Z TN23/2212Z
FM221100 15010KT P6SM SCT015 SCT080
FM221800 20015KT P6SM BKN015 OVC080
BECMG 2219/2221 5SM -RA
TEMPO 2223/2303 3SM TSRA BKN015CB